sensor_id;sensor_type;location;lat;lon;timestamp;pressure;altitude;pressure_sealevel;temperature;humidity
14120;BME280;7138;49.246;9.100;2022-09-24T00:01:08;98453.34;;;14.57;92.85
14120;BME280;7138;49.246;9.100;2022-09-24T00:03:34;98442.19;;;14.51;92.74
14120;BME280;7138;49.246;9.100;2022-09-24T00:06:01;98459.34;;;14.61;92.30
14120;BME280;7138;49.246;9.100;2022-09-24T00:08:31;98447.13;;;14.63;92.19
14120;BME280;7138;49.246;9.100;2022-09-24T00:11:01;98448.00;;;14.63;92.51
14120;BME280;7138;49.246;9.100;2022-09-24T00:13:32;98440.19;;;14.63;92.98
14120;BME280;7138;49.246;9.100;2022-09-24T00:16:03;98429.09;;;14.55;92.66
14120;BME280;7138;49.246;9.100;2022-09-24T00:18:30;98446.25;;;14.64;92.73
14120;BME280;7138;49.246;9.100;2022-09-24T00:20:56;98441.00;;;14.65;92.59
14120;BME280;7138;49.246;9.100;2022-09-24T00:23:22;98446.19;;;14.67;92.23
14120;BME280;7138;49.246;9.100;2022-09-24T00:25:48;98439.31;;;14.64;92.76
14120;BME280;7138;49.246;9.100;2022-09-24T00:28:33;98409.16;;;14.56;93.20
14120;BME280;7138;49.246;9.100;2022-09-24T00:31:05;98421.97;;;14.65;93.45
14120;BME280;7138;49.246;9.100;2022-09-24T00:33:33;98419.38;;;14.63;93.41
14120;BME280;7138;49.246;9.100;2022-09-24T00:36:01;98412.50;;;14.61;93.72
14120;BME280;7138;49.246;9.100;2022-09-24T00:38:29;98424.69;;;14.59;93.54
14120;BME280;7138;49.246;9.100;2022-09-24T00:40:55;98418.66;;;14.57;93.48
14120;BME280;7138;49.246;9.100;2022-09-24T00:43:24;98413.50;;;14.55;93.94
14120;BME280;7138;49.246;9.100;2022-09-24T00:45:52;98410.16;;;14.47;93.68
14120;BME280;7138;49.246;9.100;2022-09-24T00:48:21;98423.97;;;14.52;93.78
14120;BME280;7138;49.246;9.100;2022-09-24T00:50:48;98408.34;;;14.52;93.86
14120;BME280;7138;49.246;9.100;2022-09-24T00:53:17;98407.44;;;14.55;93.86
14120;BME280;7138;49.246;9.100;2022-09-24T00:55:49;98403.03;;;14.57;93.84
14120;BME280;7138;49.246;9.100;2022-09-24T00:58:18;98397.81;;;14.57;93.48
14120;BME280;7138;49.246;9.100;2022-09-24T01:00:44;98394.38;;;14.56;93.46
14120;BME280;7138;49.246;9.100;2022-09-24T01:03:14;98380.75;;;14.45;93.85
14120;BME280;7138;49.246;9.100;2022-09-24T01:05:43;98391.81;;;14.55;93.51
14120;BME280;7138;49.246;9.100;2022-09-24T01:08:11;98381.47;;;14.52;94.21
14120;BME280;7138;49.246;9.100;2022-09-24T01:10:54;98390.19;;;14.49;95.23
14120;BME280;7138;49.246;9.100;2022-09-24T01:13:47;98382.41;;;14.49;94.70
14120;BME280;7138;49.246;9.100;2022-09-24T01:16:25;98379.88;;;14.45;94.94
14120;BME280;7138;49.246;9.100;2022-09-24T01:19:04;98366.84;;;14.46;94.86
14120;BME280;7138;49.246;9.100;2022-09-24T01:21:42;98373.72;;;14.49;94.48
14120;BME280;7138;49.246;9.100;2022-09-24T01:24:42;98376.41;;;14.46;95.14
14120;BME280;7138;49.246;9.100;2022-09-24T01:27:15;98368.66;;;14.43;94.85
14120;BME280;7138;49.246;9.100;2022-09-24T01:29:55;98383.44;;;14.41;95.42
14120;BME280;7138;49.246;9.100;2022-09-24T01:32:33;98376.53;;;14.40;95.15
14120;BME280;7138;49.246;9.100;2022-09-24T01:35:09;98372.19;;;14.40;95.04
14120;BME280;7138;49.246;9.100;2022-09-24T01:37:42;98362.72;;;14.38;95.00
14120;BME280;7138;49.246;9.100;2022-09-24T01:40:11;98360.00;;;14.42;94.88
14120;BME280;7138;49.246;9.100;2022-09-24T01:42:41;98341.97;;;14.35;95.15
14120;BME280;7138;49.246;9.100;2022-09-24T01:45:11;98359.97;;;14.44;94.80
14120;BME280;7138;49.246;9.100;2022-09-24T01:47:40;98364.34;;;14.42;95.07
14120;BME280;7138;49.246;9.100;2022-09-24T01:50:09;98360.88;;;14.41;95.23
14120;BME280;7138;49.246;9.100;2022-09-24T01:52:40;98361.72;;;14.43;94.54
14120;BME280;7138;49.246;9.100;2022-09-24T01:55:14;98360.00;;;14.42;94.66
14120;BME280;7138;49.246;9.100;2022-09-24T01:57:46;98362.56;;;14.44;94.59
14120;BME280;7138;49.246;9.100;2022-09-24T02:00:16;98357.41;;;14.42;94.81
14120;BME280;7138;49.246;9.100;2022-09-24T02:02:48;98350.41;;;14.44;94.60
14120;BME280;7138;49.246;9.100;2022-09-24T02:05:27;98347.78;;;14.46;95.05
14120;BME280;7138;49.246;9.100;2022-09-24T02:08:03;98339.97;;;14.46;95.00
14120;BME280;7138;49.246;9.100;2022-09-24T02:10:37;98333.91;;;14.47;94.73
14120;BME280;7138;49.246;9.100;2022-09-24T02:13:10;98336.50;;;14.45;95.36
14120;BME280;7138;49.246;9.100;2022-09-24T02:15:43;98339.16;;;14.44;95.49
14120;BME280;7138;49.246;9.100;2022-09-24T02:18:16;98343.47;;;14.45;94.93
14120;BME280;7138;49.246;9.100;2022-09-24T02:20:44;98338.25;;;14.45;95.00
14120;BME280;7138;49.246;9.100;2022-09-24T02:23:14;98343.56;;;14.40;95.31
14120;BME280;7138;49.246;9.100;2022-09-24T02:25:48;98296.53;;;14.09;95.62
14120;BME280;7138;49.246;9.100;2022-09-24T02:28:15;98332.38;;;14.35;95.17
14120;BME280;7138;49.246;9.100;2022-09-24T02:30:51;98325.44;;;14.37;94.71
14120;BME280;7138;49.246;9.100;2022-09-24T02:33:20;98333.19;;;14.39;94.50
14120;BME280;7138;49.246;9.100;2022-09-24T02:36:07;98329.81;;;14.32;94.58
14120;BME280;7138;49.246;9.100;2022-09-24T02:38:34;98335.06;;;14.31;95.08
14120;BME280;7138;49.246;9.100;2022-09-24T02:41:00;98334.19;;;14.33;94.77
14120;BME280;7138;49.246;9.100;2022-09-24T02:43:26;98326.47;;;14.29;95.18
14120;BME280;7138;49.246;9.100;2022-09-24T02:45:53;98322.13;;;14.28;95.31
14120;BME280;7138;49.246;9.100;2022-09-24T02:48:19;98322.16;;;14.26;95.24
14120;BME280;7138;49.246;9.100;2022-09-24T02:50:45;98322.16;;;14.26;95.24
14120;BME280;7138;49.246;9.100;2022-09-24T02:53:11;98319.53;;;14.28;95.34
14120;BME280;7138;49.246;9.100;2022-09-24T02:55:37;98321.28;;;14.27;95.35
14120;BME280;7138;49.246;9.100;2022-09-24T02:58:03;98311.81;;;14.23;95.44
14120;BME280;7138;49.246;9.100;2022-09-24T03:00:28;98328.34;;;14.20;95.44
14120;BME280;7138;49.246;9.100;2022-09-24T03:02:56;98327.53;;;14.18;95.60
14120;BME280;7138;49.246;9.100;2022-09-24T03:05:21;98327.59;;;14.15;95.70
14120;BME280;7138;49.246;9.100;2022-09-24T03:07:47;98331.06;;;14.14;95.68
14120;BME280;7138;49.246;9.100;2022-09-24T03:10:14;98327.72;;;14.09;95.88
14120;BME280;7138;49.246;9.100;2022-09-24T03:12:40;98338.13;;;14.09;95.58
14120;BME280;7138;49.246;9.100;2022-09-24T03:15:09;98342.47;;;14.07;95.81
14120;BME280;7138;49.246;9.100;2022-09-24T03:17:35;98346.78;;;14.10;95.38
14120;BME280;7138;49.246;9.100;2022-09-24T03:20:03;98344.31;;;14.04;95.30
14120;BME280;7138;49.246;9.100;2022-09-24T03:22:29;98343.50;;;14.00;95.49
14120;BME280;7138;49.246;9.100;2022-09-24T03:24:55;98338.31;;;13.99;95.72
14120;BME280;7138;49.246;9.100;2022-09-24T03:27:21;98339.19;;;13.99;95.73
14120;BME280;7138;49.246;9.100;2022-09-24T03:29:47;98335.78;;;13.96;95.73
14120;BME280;7138;49.246;9.100;2022-09-24T03:32:31;98325.50;;;13.90;95.92
14120;BME280;7138;49.246;9.100;2022-09-24T03:34:58;98329.97;;;13.85;96.32
14120;BME280;7138;49.246;9.100;2022-09-24T03:37:27;98326.53;;;13.83;96.06
14120;BME280;7138;49.246;9.100;2022-09-24T03:39:52;98310.09;;;13.82;95.76
14120;BME280;7138;49.246;9.100;2022-09-24T03:42:18;98308.41;;;13.80;95.65
14120;BME280;7138;49.246;9.100;2022-09-24T03:44:44;98310.22;;;13.76;95.81
14120;BME280;7138;49.246;9.100;2022-09-24T03:47:10;98301.69;;;13.68;96.12
14120;BME280;7138;49.246;9.100;2022-09-24T03:49:35;98299.16;;;13.65;96.18
14120;BME280;7138;49.246;9.100;2022-09-24T03:52:01;98309.53;;;13.65;96.28
14120;BME280;7138;49.246;9.100;2022-09-24T03:54:28;98308.66;;;13.66;95.81
14120;BME280;7138;49.246;9.100;2022-09-24T03:56:54;98302.66;;;13.62;95.52
14120;BME280;7138;49.246;9.100;2022-09-24T03:59:20;98294.06;;;13.59;96.17
14120;BME280;7138;49.246;9.100;2022-09-24T04:01:46;98298.44;;;13.57;96.25
14120;BME280;7138;49.246;9.100;2022-09-24T04:04:12;98299.38;;;13.53;96.90
14120;BME280;7138;49.246;9.100;2022-09-24T04:06:40;98301.16;;;13.51;96.36
14120;BME280;7138;49.246;9.100;2022-09-24T04:09:06;98302.91;;;13.50;95.95
14120;BME280;7138;49.246;9.100;2022-09-24T04:11:34;98304.69;;;13.48;96.07
14120;BME280;7138;49.246;9.100;2022-09-24T04:14:00;98302.16;;;13.44;96.60
14120;BME280;7138;49.246;9.100;2022-09-24T04:16:25;98293.50;;;13.45;96.51
14120;BME280;7138;49.246;9.100;2022-09-24T04:18:51;98291.00;;;13.40;96.27
14120;BME280;7138;49.246;9.100;2022-09-24T04:21:18;98290.06;;;13.43;95.80
14120;BME280;7138;49.246;9.100;2022-09-24T04:23:44;98293.50;;;13.45;95.27
14120;BME280;7138;49.246;9.100;2022-09-24T04:26:10;98293.50;;;13.45;95.18
14120;BME280;7138;49.246;9.100;2022-09-24T04:28:38;98291.88;;;13.38;95.34
14120;BME280;7138;49.246;9.100;2022-09-24T04:31:04;98282.41;;;13.37;95.85
14120;BME280;7138;49.246;9.100;2022-09-24T04:33:30;98274.72;;;13.31;96.71
14120;BME280;7138;49.246;9.100;2022-09-24T04:35:56;98270.50;;;13.25;96.74
14120;BME280;7138;49.246;9.100;2022-09-24T04:38:22;98273.22;;;13.19;96.63
14120;BME280;7138;49.246;9.100;2022-09-24T04:40:48;98273.28;;;13.14;96.51
14120;BME280;7138;49.246;9.100;2022-09-24T04:43:14;98277.66;;;13.11;96.14
14120;BME280;7138;49.246;9.100;2022-09-24T04:45:41;98275.09;;;13.09;95.88
14120;BME280;7138;49.246;9.100;2022-09-24T04:48:09;98276.81;;;13.07;95.52
14120;BME280;7138;49.246;9.100;2022-09-24T04:50:35;98291.56;;;13.05;95.28
14120;BME280;7138;49.246;9.100;2022-09-24T04:53:03;98289.91;;;13.01;94.38
14120;BME280;7138;49.246;9.100;2022-09-24T04:55:29;98286.50;;;12.99;94.85
14120;BME280;7138;49.246;9.100;2022-09-24T04:57:57;98283.06;;;12.97;96.36
14120;BME280;7138;49.246;9.100;2022-09-24T05:00:24;98286.59;;;12.95;96.58
14120;BME280;7138;49.246;9.100;2022-09-24T05:02:57;98284.81;;;12.95;97.07
14120;BME280;7138;49.246;9.100;2022-09-24T05:05:24;98287.41;;;12.95;96.64
14120;BME280;7138;49.246;9.100;2022-09-24T05:07:50;98287.41;;;12.97;96.17
14120;BME280;7138;49.246;9.100;2022-09-24T05:10:17;98282.22;;;12.97;96.31
14120;BME280;7138;49.246;9.100;2022-09-24T05:12:43;98284.00;;;12.93;96.48
14120;BME280;7138;49.246;9.100;2022-09-24T05:15:09;98284.09;;;12.87;96.51
14120;BME280;7138;49.246;9.100;2022-09-24T05:17:37;98278.97;;;12.84;96.53
14120;BME280;7138;49.246;9.100;2022-09-24T05:20:06;98281.63;;;12.80;96.61
14120;BME280;7138;49.246;9.100;2022-09-24T05:22:32;98285.22;;;12.73;96.66
14120;BME280;7138;49.246;9.100;2022-09-24T05:24:57;98278.34;;;12.70;97.28
14120;BME280;7138;49.246;9.100;2022-09-24T05:27:23;98281.81;;;12.68;97.66
14120;BME280;7138;49.246;9.100;2022-09-24T05:29:49;98277.50;;;12.68;97.23
14120;BME280;7138;49.246;9.100;2022-09-24T05:32:17;98289.53;;;12.71;96.86
14120;BME280;7138;49.246;9.100;2022-09-24T05:34:44;98289.59;;;12.69;97.71
14120;BME280;7138;49.246;9.100;2022-09-24T05:37:13;98295.63;;;12.70;97.70
14120;BME280;7138;49.246;9.100;2022-09-24T05:39:39;98293.97;;;12.66;98.09
14120;BME280;7138;49.246;9.100;2022-09-24T05:42:08;98296.50;;;12.70;97.95
14120;BME280;7138;49.246;9.100;2022-09-24T05:44:34;98303.38;;;12.71;97.92
14120;BME280;7138;49.246;9.100;2022-09-24T05:47:00;98316.34;;;12.73;98.71
14120;BME280;7138;49.246;9.100;2022-09-24T05:49:26;98318.88;;;12.76;98.24
14120;BME280;7138;49.246;9.100;2022-09-24T05:51:52;98323.13;;;12.80;98.81
14120;BME280;7138;49.246;9.100;2022-09-24T05:54:19;98317.88;;;12.84;98.25
14120;BME280;7138;49.246;9.100;2022-09-24T05:56:45;98310.03;;;12.87;98.31
14120;BME280;7138;49.246;9.100;2022-09-24T05:59:11;98303.03;;;12.94;98.75
14120;BME280;7138;49.246;9.100;2022-09-24T06:01:37;98284.09;;;12.86;98.76
14120;BME280;7138;49.246;9.100;2022-09-24T06:04:03;98310.56;;;13.07;97.93
14120;BME280;7138;49.246;9.100;2022-09-24T06:06:29;98312.25;;;13.13;97.53
14120;BME280;7138;49.246;9.100;2022-09-24T06:08:55;98313.06;;;13.15;97.79
14120;BME280;7138;49.246;9.100;2022-09-24T06:11:22;98310.44;;;13.18;97.29
14120;BME280;7138;49.246;9.100;2022-09-24T06:13:48;98312.97;;;13.21;97.45
14120;BME280;7138;49.246;9.100;2022-09-24T06:16:16;98318.13;;;13.23;97.75
14120;BME280;7138;49.246;9.100;2022-09-24T06:18:43;98316.38;;;13.25;97.26
14120;BME280;7138;49.246;9.100;2022-09-24T06:21:11;98314.59;;;13.27;97.80
14120;BME280;7138;49.246;9.100;2022-09-24T06:23:38;98312.75;;;13.32;97.38
14120;BME280;7138;49.246;9.100;2022-09-24T06:26:07;98307.47;;;13.38;97.65
14120;BME280;7138;49.246;9.100;2022-09-24T06:28:36;98307.63;;;13.29;99.27
14120;BME280;7138;49.246;9.100;2022-09-24T06:31:03;98317.84;;;13.38;99.43
14120;BME280;7138;49.246;9.100;2022-09-24T06:33:32;98324.66;;;13.45;99.75
14120;BME280;7138;49.246;9.100;2022-09-24T06:35:59;98332.38;;;13.49;99.63
14120;BME280;7138;49.246;9.100;2022-09-24T06:38:26;98331.34;;;13.58;99.57
14120;BME280;7138;49.246;9.100;2022-09-24T06:40:52;98325.19;;;13.62;99.43
14120;BME280;7138;49.246;9.100;2022-09-24T06:43:17;98330.25;;;13.69;99.58
14120;BME280;7138;49.246;9.100;2022-09-24T06:45:45;98341.41;;;13.76;100.00
14120;BME280;7138;49.246;9.100;2022-09-24T06:48:12;98335.97;;;13.88;99.88
14120;BME280;7138;49.246;9.100;2022-09-24T06:50:41;98336.59;;;13.99;99.66
14120;BME280;7138;49.246;9.100;2022-09-24T06:53:09;98343.38;;;14.06;98.99
14120;BME280;7138;49.246;9.100;2022-09-24T06:55:36;98351.88;;;14.16;98.40
14120;BME280;7138;49.246;9.100;2022-09-24T06:58:05;98344.78;;;14.22;98.33
14120;BME280;7138;49.246;9.100;2022-09-24T07:00:32;98339.41;;;14.30;98.00
14120;BME280;7138;49.246;9.100;2022-09-24T07:03:00;98337.56;;;14.37;97.48
14120;BME280;7138;49.246;9.100;2022-09-24T07:05:26;98348.78;;;14.39;97.08
14120;BME280;7138;49.246;9.100;2022-09-24T07:07:51;98344.38;;;14.44;97.10
14120;BME280;7138;49.246;9.100;2022-09-24T07:10:18;98355.53;;;14.49;96.56
14120;BME280;7138;49.246;9.100;2022-09-24T07:12:44;98353.59;;;14.57;96.09
14120;BME280;7138;49.246;9.100;2022-09-24T07:15:10;98349.13;;;14.63;96.30
14120;BME280;7138;49.246;9.100;2022-09-24T07:17:36;98351.63;;;14.68;96.02
14120;BME280;7138;49.246;9.100;2022-09-24T07:20:04;98347.13;;;14.74;95.25
14120;BME280;7138;49.246;9.100;2022-09-24T07:22:30;98353.88;;;14.83;95.49
14120;BME280;7138;49.246;9.100;2022-09-24T07:24:56;98352.88;;;14.89;94.99
14120;BME280;7138;49.246;9.100;2022-09-24T07:27:22;98355.25;;;14.98;94.99
14120;BME280;7138;49.246;9.100;2022-09-24T07:29:48;98356.78;;;15.06;95.35
14120;BME280;7138;49.246;9.100;2022-09-24T07:32:15;98351.28;;;15.18;93.99
14120;BME280;7138;49.246;9.100;2022-09-24T07:34:42;98358.94;;;15.24;93.85
14120;BME280;7138;49.246;9.100;2022-09-24T07:37:09;98353.56;;;15.30;93.45
14120;BME280;7138;49.246;9.100;2022-09-24T07:39:35;98352.56;;;15.36;93.02
14120;BME280;7138;49.246;9.100;2022-09-24T07:42:01;98348.13;;;15.40;92.30
14120;BME280;7138;49.246;9.100;2022-09-24T07:44:28;98360.28;;;15.41;92.44
14120;BME280;7138;49.246;9.100;2022-09-24T07:46:54;98362.88;;;15.41;92.89
14120;BME280;7138;49.246;9.100;2022-09-24T07:49:21;98367.97;;;15.45;92.65
14120;BME280;7138;49.246;9.100;2022-09-24T07:51:47;98363.59;;;15.47;93.01
14120;BME280;7138;49.246;9.100;2022-09-24T07:54:15;98364.50;;;15.45;92.80
14120;BME280;7138;49.246;9.100;2022-09-24T07:56:41;98362.69;;;15.50;93.43
14120;BME280;7138;49.246;9.100;2022-09-24T07:59:07;98357.50;;;15.47;92.89
14120;BME280;7138;49.246;9.100;2022-09-24T08:01:35;98369.31;;;15.61;92.42
14120;BME280;7138;49.246;9.100;2022-09-24T08:04:02;98363.09;;;15.67;92.80
14120;BME280;7138;49.246;9.100;2022-09-24T08:06:29;98356.91;;;15.71;92.74
14120;BME280;7138;49.246;9.100;2022-09-24T08:08:57;98365.25;;;15.83;92.54
14120;BME280;7138;49.246;9.100;2022-09-24T08:11:25;98371.09;;;15.92;92.32
14120;BME280;7138;49.246;9.100;2022-09-24T08:13:51;98371.97;;;15.92;91.73
14120;BME280;7138;49.246;9.100;2022-09-24T08:16:18;98371.75;;;16.00;92.11
14120;BME280;7138;49.246;9.100;2022-09-24T08:18:46;98365.00;;;15.93;92.04
14120;BME280;7138;49.246;9.100;2022-09-24T08:21:12;98383.56;;;16.13;91.95
14120;BME280;7138;49.246;9.100;2022-09-24T08:23:40;98381.63;;;16.19;91.38
14120;BME280;7138;49.246;9.100;2022-09-24T08:26:07;98382.31;;;16.26;91.36
14120;BME280;7138;49.246;9.100;2022-09-24T08:28:35;98383.91;;;16.30;91.17
14120;BME280;7138;49.246;9.100;2022-09-24T08:31:04;98390.69;;;16.37;91.77
14120;BME280;7138;49.246;9.100;2022-09-24T08:33:33;98396.50;;;16.47;92.17
14120;BME280;7138;49.246;9.100;2022-09-24T08:36:01;98386.72;;;16.55;91.36
14120;BME280;7138;49.246;9.100;2022-09-24T08:38:28;98388.97;;;16.67;90.84
14120;BME280;7138;49.246;9.100;2022-09-24T08:41:04;98381.69;;;16.76;90.32
14120;BME280;7138;49.246;9.100;2022-09-24T08:43:45;98380.66;;;16.82;89.93
14120;BME280;7138;49.246;9.100;2022-09-24T08:46:22;98382.13;;;16.90;90.15
14120;BME280;7138;49.246;9.100;2022-09-24T08:49:15;98389.03;;;16.93;89.11
14120;BME280;7138;49.246;9.100;2022-09-24T08:51:56;98384.41;;;17.01;89.58
14120;BME280;7138;49.246;9.100;2022-09-24T08:54:27;98383.31;;;17.08;89.34
14120;BME280;7138;49.246;9.100;2022-09-24T08:56:55;98378.72;;;17.15;88.49
14120;BME280;7138;49.246;9.100;2022-09-24T08:59:28;98375.13;;;17.19;87.78
14120;BME280;7138;49.246;9.100;2022-09-24T09:02:18;98378.63;;;17.18;87.07
14120;BME280;7138;49.246;9.100;2022-09-24T09:05:00;98383.75;;;17.21;88.31
14120;BME280;7138;49.246;9.100;2022-09-24T09:07:34;98385.44;;;17.23;88.25
14120;BME280;7138;49.246;9.100;2022-09-24T09:10:11;98390.63;;;17.25;88.66
14120;BME280;7138;49.246;9.100;2022-09-24T09:12:43;98371.22;;;17.32;88.67
14120;BME280;7138;49.246;9.100;2022-09-24T09:15:15;98379.81;;;17.35;88.52
14120;BME280;7138;49.246;9.100;2022-09-24T09:17:49;98385.94;;;17.34;87.98
14120;BME280;7138;49.246;9.100;2022-09-24T09:20:20;98366.41;;;17.20;88.63
14120;BME280;7138;49.246;9.100;2022-09-24T09:22:50;98377.34;;;17.31;88.21
14120;BME280;7138;49.246;9.100;2022-09-24T09:25:21;98388.78;;;17.27;88.73
14120;BME280;7138;49.246;9.100;2022-09-24T09:27:52;98382.75;;;17.26;88.54
14120;BME280;7138;49.246;9.100;2022-09-24T09:30:21;98373.88;;;17.30;88.93
14120;BME280;7138;49.246;9.100;2022-09-24T09:33:14;98373.75;;;17.35;88.88
14120;BME280;7138;49.246;9.100;2022-09-24T09:35:53;98379.53;;;17.44;87.75
14120;BME280;7138;49.246;9.100;2022-09-24T09:38:29;98384.53;;;17.51;89.49
14120;BME280;7138;49.246;9.100;2022-09-24T09:41:11;98388.91;;;17.50;88.51
14120;BME280;7138;49.246;9.100;2022-09-24T09:43:42;98380.22;;;17.49;88.58
14120;BME280;7138;49.246;9.100;2022-09-24T09:46:14;98384.88;;;17.66;88.76
14120;BME280;7138;49.246;9.100;2022-09-24T09:48:45;98382.06;;;17.72;88.70
14120;BME280;7138;49.246;9.100;2022-09-24T09:51:17;98386.94;;;17.83;88.32
14120;BME280;7138;49.246;9.100;2022-09-24T09:53:57;98386.53;;;17.93;87.94
14120;BME280;7138;49.246;9.100;2022-09-24T09:56:27;98379.22;;;18.03;87.34
14120;BME280;7138;49.246;9.100;2022-09-24T09:59:04;98382.44;;;18.11;87.10
14120;BME280;7138;49.246;9.100;2022-09-24T10:01:36;98382.34;;;18.14;85.87
14120;BME280;7138;49.246;9.100;2022-09-24T10:04:04;98388.03;;;18.25;86.59
14120;BME280;7138;49.246;9.100;2022-09-24T10:06:32;98376.53;;;18.29;87.05
14120;BME280;7138;49.246;9.100;2022-09-24T10:09:10;98377.84;;;18.41;86.44
14120;BME280;7138;49.246;9.100;2022-09-24T10:11:36;98374.84;;;18.51;86.76
14120;BME280;7138;49.246;9.100;2022-09-24T10:14:04;98372.81;;;18.60;85.33
14120;BME280;7138;49.246;9.100;2022-09-24T10:16:37;98373.25;;;18.71;85.49
14120;BME280;7138;49.246;9.100;2022-09-24T10:19:14;98376.50;;;18.77;85.04
14120;BME280;7138;49.246;9.100;2022-09-24T10:21:42;98372.88;;;18.80;85.47
14120;BME280;7138;49.246;9.100;2022-09-24T10:24:14;98365.81;;;18.82;85.08
14120;BME280;7138;49.246;9.100;2022-09-24T10:26:43;98375.81;;;18.94;85.53
14120;BME280;7138;49.246;9.100;2022-09-24T10:29:12;98375.44;;;19.03;85.59
14120;BME280;7138;49.246;9.100;2022-09-24T10:32:02;98363.69;;;19.13;85.30
14120;BME280;7138;49.246;9.100;2022-09-24T10:34:28;98359.53;;;19.29;85.90
14120;BME280;7138;49.246;9.100;2022-09-24T10:36:59;98357.22;;;19.43;85.41
14120;BME280;7138;49.246;9.100;2022-09-24T10:39:26;98365.00;;;19.67;85.80
14120;BME280;7138;49.246;9.100;2022-09-24T10:41:55;98365.75;;;19.89;84.20
14120;BME280;7138;49.246;9.100;2022-09-24T10:44:33;98375.13;;;19.94;82.12
14120;BME280;7138;49.246;9.100;2022-09-24T10:47:18;98369.63;;;20.00;82.27
14120;BME280;7138;49.246;9.100;2022-09-24T10:50:06;98368.38;;;20.09;82.62
14120;BME280;7138;49.246;9.100;2022-09-24T10:52:45;98373.09;;;20.21;82.00
14120;BME280;7138;49.246;9.100;2022-09-24T10:55:37;98370.84;;;20.32;82.14
14120;BME280;7138;49.246;9.100;2022-09-24T10:58:23;98363.75;;;20.34;80.58
14120;BME280;7138;49.246;9.100;2022-09-24T11:01:10;98364.41;;;20.39;80.64
14120;BME280;7138;49.246;9.100;2022-09-24T11:04:15;98359.22;;;20.38;80.82
14120;BME280;7138;49.246;9.100;2022-09-24T11:07:07;98371.31;;;20.42;81.84
14120;BME280;7138;49.246;9.100;2022-09-24T11:09:47;98361.84;;;20.38;81.09
14120;BME280;7138;49.246;9.100;2022-09-24T11:12:25;98369.47;;;20.24;81.24
14120;BME280;7138;49.246;9.100;2022-09-24T11:15:14;98372.22;;;20.21;81.72
14120;BME280;7138;49.246;9.100;2022-09-24T11:18:00;98365.50;;;20.15;82.34
14120;BME280;7138;49.246;9.100;2022-09-24T11:20:35;98357.03;;;20.08;82.77
14120;BME280;7138;49.246;9.100;2022-09-24T11:23:21;98364.63;;;20.14;82.74
14120;BME280;7138;49.246;9.100;2022-09-24T11:26:02;98362.53;;;20.02;83.88
14120;BME280;7138;49.246;9.100;2022-09-24T11:31:37;98362.88;;;19.75;84.18
14120;BME280;7138;49.246;9.100;2022-09-24T11:34:20;98373.38;;;19.75;84.21
14120;BME280;7138;49.246;9.100;2022-09-24T11:37:19;98360.25;;;19.75;85.81
14120;BME280;7138;49.246;9.100;2022-09-24T11:40:11;98366.41;;;19.74;85.93
14120;BME280;7138;49.246;9.100;2022-09-24T11:42:59;98352.91;;;19.83;85.96
14120;BME280;7138;49.246;9.100;2022-09-24T11:45:45;98347.25;;;19.92;86.83
14120;BME280;7138;49.246;9.100;2022-09-24T11:48:42;98351.06;;;20.05;86.16
14120;BME280;7138;49.246;9.100;2022-09-24T11:51:25;98342.31;;;20.04;85.26
14120;BME280;7138;49.246;9.100;2022-09-24T11:54:01;98350.69;;;20.12;87.45
14120;BME280;7138;49.246;9.100;2022-09-24T11:56:32;98344.91;;;20.25;87.50
14120;BME280;7138;49.246;9.100;2022-09-24T11:59:07;98350.84;;;20.30;85.14
14120;BME280;7138;49.246;9.100;2022-09-24T12:01:44;98355.25;;;20.29;85.00
14120;BME280;7138;49.246;9.100;2022-09-24T12:04:17;98342.75;;;20.34;84.20
14120;BME280;7138;49.246;9.100;2022-09-24T12:06:52;98341.47;;;20.43;84.39
14120;BME280;7138;49.246;9.100;2022-09-24T12:09:30;98335.63;;;20.55;84.38
14120;BME280;7138;49.246;9.100;2022-09-24T12:12:04;98332.66;;;20.62;84.58
14120;BME280;7138;49.246;9.100;2022-09-24T12:14:44;98338.63;;;20.66;82.05
14120;BME280;7138;49.246;9.100;2022-09-24T12:17:16;98336.22;;;20.61;83.33
14120;BME280;7138;49.246;9.100;2022-09-24T12:19:51;98331.63;;;20.66;84.25
14120;BME280;7138;49.246;9.100;2022-09-24T12:22:20;98331.38;;;20.71;84.09
14120;BME280;7138;49.246;9.100;2022-09-24T12:24:52;98317.75;;;20.63;83.12
14120;BME280;7138;49.246;9.100;2022-09-24T12:27:25;98340.69;;;20.78;82.93
14120;BME280;7138;49.246;9.100;2022-09-24T12:30:03;98338.13;;;20.77;81.82
14120;BME280;7138;49.246;9.100;2022-09-24T12:32:57;98334.16;;;20.68;81.06
14120;BME280;7138;49.246;9.100;2022-09-24T12:35:45;98330.66;;;20.67;82.39
14120;BME280;7138;49.246;9.100;2022-09-24T12:38:20;98334.09;;;20.69;82.87
14120;BME280;7138;49.246;9.100;2022-09-24T12:41:22;98337.00;;;20.82;82.49
14120;BME280;7138;49.246;9.100;2022-09-24T12:43:56;98337.00;;;20.82;82.17
14120;BME280;7138;49.246;9.100;2022-09-24T12:46:29;98336.28;;;20.79;81.95
14120;BME280;7138;49.246;9.100;2022-09-24T12:48:56;98326.78;;;20.76;82.08
14120;BME280;7138;49.246;9.100;2022-09-24T12:51:22;98334.97;;;20.70;80.82
14120;BME280;7138;49.246;9.100;2022-09-24T12:53:59;98330.19;;;20.59;79.82
14120;BME280;7138;49.246;9.100;2022-09-24T12:56:31;98323.66;;;20.49;81.57
14120;BME280;7138;49.246;9.100;2022-09-24T12:58:57;98331.53;;;20.49;81.87
14120;BME280;7138;49.246;9.100;2022-09-24T13:01:29;98323.50;;;20.52;81.19
14120;BME280;7138;49.246;9.100;2022-09-24T13:06:46;98322.59;;;20.53;80.64
14120;BME280;7138;49.246;9.100;2022-09-24T13:09:31;98332.53;;;20.47;80.32
14120;BME280;7138;49.246;9.100;2022-09-24T13:12:19;98332.53;;;20.47;81.29
14120;BME280;7138;49.246;9.100;2022-09-24T13:14:53;98327.13;;;20.50;81.46
14120;BME280;7138;49.246;9.100;2022-09-24T13:17:21;98308.16;;;20.43;81.19
14120;BME280;7138;49.246;9.100;2022-09-24T13:19:55;98319.34;;;20.48;81.46
14120;BME280;7138;49.246;9.100;2022-09-24T13:22:27;98316.91;;;20.44;81.92
14120;BME280;7138;49.246;9.100;2022-09-24T13:25:18;98319.34;;;20.48;81.40
14120;BME280;7138;49.246;9.100;2022-09-24T13:27:59;98316.56;;;20.51;80.84
14120;BME280;7138;49.246;9.100;2022-09-24T13:30:39;98311.09;;;20.56;80.81
14120;BME280;7138;49.246;9.100;2022-09-24T13:33:20;98303.81;;;20.61;81.71
14120;BME280;7138;49.246;9.100;2022-09-24T13:36:02;98298.72;;;20.58;81.97
14120;BME280;7138;49.246;9.100;2022-09-24T13:38:36;98304.06;;;20.56;82.15